Time;durP1;ratioP1;P1;durP2;ratioP2;P2;SDS_P1;SDS_P2;PMS_P1;PMS_P2;Temp;Humidity;BMP_temperature;BMP_pressure;BME280_temperature;BME280_humidity;BME280_pressure;Samples;Min_cycle;Max_cycle;Signal;HPM_P1;HPM_P2
2021/05/11 00:02:21;;;;;;;22.80;21.17;;;14.20;99.90;;;;;;4992474;28;20804;-69
2021/05/11 00:04:48;;;;;;;23.33;21.60;;;14.20;99.90;;;;;;4992536;28;20502;-68
2021/05/11 00:07:14;;;;;;;21.77;20.27;;;14.20;99.90;;;;;;4992515;28;20455;-69
2021/05/11 00:09:40;;;;;;;24.63;22.63;;;14.20;99.90;;;;;;4992648;28;20466;-69
2021/05/11 00:12:07;;;;;;;24.00;22.30;;;14.20;99.90;;;;;;4992484;28;20443;-68
2021/05/11 00:14:35;;;;;;;24.00;22.07;;;14.20;99.90;;;;;;4992570;28;20451;-68
2021/05/11 00:17:01;;;;;;;23.17;21.37;;;14.20;99.90;;;;;;4992133;28;20450;-68
2021/05/11 00:19:28;;;;;;;25.07;23.00;;;14.30;99.90;;;;;;4992023;28;20455;-68
2021/05/11 00:21:54;;;;;;;23.03;21.27;;;14.20;99.90;;;;;;4992500;28;20463;-69
2021/05/11 00:24:20;;;;;;;24.00;22.10;;;14.20;99.90;;;;;;4992093;28;20571;-68
2021/05/11 00:26:47;;;;;;;23.63;21.87;;;14.20;99.90;;;;;;4992235;28;20455;-68
2021/05/11 00:29:13;;;;;;;24.37;22.37;;;14.20;99.90;;;;;;4991864;28;20443;-69
2021/05/11 00:31:40;;;;;;;25.10;23.10;;;14.20;99.90;;;;;;4992078;28;20459;-68
2021/05/11 00:34:06;;;;;;;21.37;19.83;;;14.10;99.90;;;;;;4991969;28;20454;-69
2021/05/11 00:36:32;;;;;;;25.67;23.40;;;14.00;99.90;;;;;;4991860;28;20454;-69
2021/05/11 00:38:59;;;;;;;23.90;22.10;;;14.00;99.90;;;;;;4991937;28;20478;-70
2021/05/11 00:41:25;;;;;;;25.37;23.20;;;14.10;99.90;;;;;;4991915;28;20880;-69
2021/05/11 00:43:51;;;;;;;24.47;22.70;;;14.10;99.90;;;;;;4991760;28;20490;-69
2021/05/11 00:46:18;;;;;;;24.20;22.43;;;14.10;99.90;;;;;;4991768;28;20937;-69
2021/05/11 00:48:45;;;;;;;24.97;23.17;;;14.10;99.90;;;;;;4991920;28;20557;-69
2021/05/11 00:51:12;;;;;;;23.90;22.10;;;14.10;99.90;;;;;;4991977;28;20454;-70
2021/05/11 00:53:41;;;;;;;25.63;23.70;;;14.10;99.90;;;;;;4992582;28;20454;-69
2021/05/11 00:56:09;;;;;;;24.30;22.50;;;14.10;99.90;;;;;;4992461;28;20545;-69
2021/05/11 00:58:36;;;;;;;25.27;23.30;;;14.10;99.90;;;;;;4991959;28;20501;-69
2021/05/11 01:01:02;;;;;;;23.60;21.90;;;14.00;99.90;;;;;;4991654;28;20580;-69
2021/05/11 01:03:28;;;;;;;24.53;22.70;;;14.10;99.90;;;;;;4991331;28;21015;-69
2021/05/11 01:05:56;;;;;;;22.73;21.13;;;14.20;99.90;;;;;;4991544;28;20502;-69
2021/05/11 01:08:22;;;;;;;24.23;22.20;;;14.10;99.90;;;;;;4991605;28;20462;-69
2021/05/11 01:10:48;;;;;;;22.37;20.77;;;14.10;99.90;;;;;;4991444;28;20516;-69
2021/05/11 01:13:14;;;;;;;21.57;19.97;;;14.00;99.90;;;;;;4991327;28;20447;-69
2021/05/11 01:15:44;;;;;;;21.73;20.03;;;14.00;99.90;;;;;;4991425;28;20455;-69
2021/05/11 01:18:13;;;;;;;24.13;22.33;;;14.00;99.90;;;;;;4991394;28;20465;-70
2021/05/11 01:20:41;;;;;;;20.97;19.40;;;14.10;99.90;;;;;;4991271;28;20964;-69
2021/05/11 01:23:53;;;;;;;23.57;21.77;;;14.00;99.90;;;;;;4991503;28;20830;-69
2021/05/11 01:26:25;;;;;;;22.27;20.73;;;13.90;99.90;;;;;;4991356;28;20465;-69
2021/05/11 01:28:58;;;;;;;23.47;21.67;;;13.90;99.90;;;;;;4991528;28;20454;-69
2021/05/11 01:48:09;;;;;;;24.47;22.37;;;13.70;99.90;;;;;;4990736;28;20504;-68
2021/05/11 01:50:40;;;;;;;25.70;23.47;;;13.70;99.90;;;;;;4990788;28;20457;-68
2021/05/11 01:53:36;;;;;;;25.20;23.20;;;13.80;99.90;;;;;;4990900;28;20802;-69
2021/05/11 01:56:13;;;;;;;24.50;22.50;;;13.80;99.90;;;;;;4990436;28;20936;-69
2021/05/11 02:18:12;;;;;;;25.77;23.60;;;14.20;99.90;;;;;;4990493;28;21030;-69
2021/05/11 02:23:25;;;;;;;24.57;22.50;;;14.20;99.90;;;;;;4990699;28;20795;-69
2021/05/11 02:25:51;;;;;;;22.13;20.20;;;14.10;99.90;;;;;;4990320;28;20502;-70
2021/05/11 02:28:18;;;;;;;20.97;19.37;;;14.20;99.90;;;;;;4990411;28;20450;-70
2021/05/11 02:30:45;;;;;;;22.07;20.33;;;14.20;99.90;;;;;;4990333;28;20490;-70
2021/05/11 02:33:11;;;;;;;20.03;18.60;;;14.20;99.90;;;;;;4990431;28;20465;-70
2021/05/11 02:35:38;;;;;;;20.23;18.73;;;14.20;99.90;;;;;;4990441;28;20493;-70
2021/05/11 02:38:04;;;;;;;22.27;20.43;;;14.20;99.90;;;;;;4990282;28;20482;-70
2021/05/11 02:40:30;;;;;;;21.57;19.80;;;14.30;99.90;;;;;;4990097;28;20478;-69
2021/05/11 02:43:00;;;;;;;20.87;19.27;;;14.20;99.90;;;;;;4993168;28;20782;-69
2021/05/11 02:45:27;;;;;;;22.10;20.40;;;14.20;99.90;;;;;;4994065;28;20845;-69
2021/05/11 02:47:53;;;;;;;23.70;21.70;;;14.20;99.90;;;;;;4993928;28;20447;-70
2021/05/11 02:50:21;;;;;;;21.63;19.93;;;14.10;99.90;;;;;;4993543;28;20482;-70
2021/05/11 02:52:48;;;;;;;22.97;19.90;;;14.20;99.90;;;;;;4993638;28;20447;-70
2021/05/11 02:55:14;;;;;;;21.50;19.70;;;14.20;99.90;;;;;;4993727;28;20856;-70
2021/05/11 02:57:40;;;;;;;21.63;19.83;;;14.20;99.90;;;;;;4993868;28;20941;-70
2021/05/11 03:00:09;;;;;;;21.63;19.93;;;14.20;99.90;;;;;;4993829;28;20821;-70
2021/05/11 03:02:36;;;;;;;21.43;19.53;;;14.30;99.90;;;;;;4993532;28;20821;-70
2021/05/11 03:05:04;;;;;;;21.67;19.87;;;14.20;99.90;;;;;;4993281;28;20498;-70
2021/05/11 03:07:30;;;;;;;20.90;19.00;;;14.20;99.90;;;;;;4993350;28;20459;-69
2021/05/11 03:09:57;;;;;;;21.77;20.07;;;14.20;99.90;;;;;;4993353;28;20451;-69
2021/05/11 03:12:23;;;;;;;22.37;20.57;;;14.30;99.90;;;;;;4993515;28;20807;-70
2021/05/11 03:14:50;;;;;;;21.70;19.90;;;14.30;99.90;;;;;;4993142;28;20447;-70
2021/05/11 03:17:16;;;;;;;21.90;19.90;;;14.40;99.90;;;;;;4993009;28;20454;-69
2021/05/11 03:19:44;;;;;;;21.90;20.10;;;14.40;99.90;;;;;;4993086;28;20524;-69
2021/05/11 03:22:19;;;;;;;22.53;20.53;;;14.40;99.90;;;;;;4993245;28;20892;-71
2021/05/11 03:24:45;;;;;;;21.73;19.93;;;14.40;99.90;;;;;;4993108;28;20493;-72
2021/05/11 03:27:13;;;;;;;23.87;21.67;;;14.40;99.90;;;;;;4990974;28;20873;-71
2021/05/11 16:49:04;;;;;;;33.60;32.30;;;14.40;99.90;;;;;;5036995;23;20505;-73
2021/05/11 16:51:30;;;;;;;32.83;31.43;;;14.40;99.90;;;;;;4991763;28;20451;-74
2021/05/11 16:53:56;;;;;;;32.50;31.17;;;14.50;99.90;;;;;;4991488;28;20482;-73
2021/05/11 16:56:22;;;;;;;33.03;31.70;;;14.50;99.90;;;;;;4991307;28;20451;-73
2021/05/11 16:58:49;;;;;;;33.03;31.73;;;14.60;99.90;;;;;;4991569;28;20899;-73
2021/05/11 17:01:15;;;;;;;33.10;31.70;;;14.50;99.90;;;;;;4988677;28;20509;-72
2021/05/11 17:03:42;;;;;;;33.40;31.90;;;14.50;99.90;;;;;;4990688;28;20450;-71
2021/05/11 17:06:09;;;;;;;32.50;31.00;;;14.50;99.90;;;;;;4990899;28;20498;-72
2021/05/11 17:08:35;;;;;;;33.07;31.77;;;14.50;99.90;;;;;;4991026;28;20455;-72
2021/05/11 17:11:01;;;;;;;32.17;30.87;;;14.40;99.90;;;;;;4991010;28;20513;-73
2021/05/11 17:13:28;;;;;;;33.60;32.10;;;14.40;99.90;;;;;;4990919;28;20832;-71
2021/05/11 17:15:55;;;;;;;32.57;31.23;;;14.30;99.90;;;;;;4990781;28;20451;-71
2021/05/11 17:18:22;;;;;;;33.63;32.33;;;14.30;99.90;;;;;;4990995;28;20454;-72
2021/05/11 17:20:48;;;;;;;33.40;31.87;;;14.20;99.90;;;;;;4991369;28;20522;-72
2021/05/11 17:23:16;;;;;;;33.77;32.37;;;14.30;99.90;;;;;;4995174;28;20522;-72
2021/05/11 17:25:43;;;;;;;33.43;32.13;;;14.20;99.90;;;;;;4994420;28;20491;-72
2021/05/11 17:28:12;;;;;;;33.60;32.30;;;14.10;99.90;;;;;;4994293;28;20458;-73
2021/05/11 17:30:40;;;;;;;32.40;31.20;;;14.20;99.90;;;;;;4990444;28;20465;-71
2021/05/11 17:33:06;;;;;;;33.27;31.87;;;14.00;99.90;;;;;;4990619;28;20474;-73
2021/05/11 17:35:33;;;;;;;33.17;31.87;;;14.00;99.90;;;;;;4990780;28;20447;-71
2021/05/11 17:38:01;;;;;;;31.53;30.33;;;14.10;99.90;;;;;;4990418;28;20458;-72
2021/05/11 17:40:28;;;;;;;32.87;31.57;;;14.10;99.90;;;;;;4990705;28;20875;-73
2021/05/11 17:42:56;;;;;;;31.17;29.97;;;14.00;99.90;;;;;;4990332;28;20462;-72
2021/05/11 17:45:23;;;;;;;32.23;31.03;;;14.10;99.90;;;;;;4990353;28;20514;-72
2021/05/11 17:47:57;;;;;;;33.57;32.17;;;14.10;99.90;;;;;;4990200;28;20486;-72
2021/05/11 17:50:25;;;;;;;33.10;31.90;;;14.20;99.90;;;;;;4990469;28;20450;-72
2021/05/11 17:52:51;;;;;;;31.83;30.50;;;14.10;99.90;;;;;;4990194;28;20454;-72
2021/05/11 17:55:18;;;;;;;32.20;31.00;;;14.20;99.90;;;;;;4990596;28;20454;-72
2021/05/11 17:57:45;;;;;;;32.73;31.47;;;14.20;99.90;;;;;;4990093;28;20493;-72
2021/05/11 18:00:12;;;;;;;32.30;31.00;;;14.20;99.90;;;;;;4990395;28;20447;-72
2021/05/11 18:02:38;;;;;;;31.90;30.50;;;14.20;99.90;;;;;;4990174;28;20466;-71
2021/05/11 18:05:05;;;;;;;31.40;30.10;;;14.20;99.90;;;;;;4990534;28;20505;-71
2021/05/11 18:07:31;;;;;;;34.03;32.50;;;14.20;99.90;;;;;;4990512;28;20446;-72
2021/05/11 18:09:58;;;;;;;34.70;33.30;;;14.10;99.90;;;;;;4989999;28;20458;-72
2021/05/11 18:12:24;;;;;;;33.80;32.50;;;14.00;99.90;;;;;;4990799;28;20462;-72
2021/05/11 18:14:51;;;;;;;33.20;32.00;;;14.00;99.90;;;;;;4994028;28;20514;-72
2021/05/11 18:17:17;;;;;;;34.83;33.53;;;14.00;99.90;;;;;;4994273;28;20465;-72
2021/05/11 18:19:44;;;;;;;33.60;32.30;;;14.00;99.90;;;;;;4993937;28;20454;-73
2021/05/11 18:22:11;;;;;;;34.73;33.23;;;14.00;99.90;;;;;;4994125;28;20450;-72
2021/05/11 18:24:37;;;;;;;34.20;32.80;;;14.00;99.90;;;;;;4993844;28;20512;-72
2021/05/11 18:27:05;;;;;;;32.57;31.37;;;14.00;99.90;;;;;;4994170;28;20823;-72
2021/05/11 18:29:31;;;;;;;33.70;32.30;;;14.00;99.90;;;;;;4993919;28;20965;-73
2021/05/11 18:31:58;;;;;;;33.67;32.37;;;13.80;99.90;;;;;;4993749;28;20451;-73
2021/05/11 18:34:25;;;;;;;33.93;32.60;;;13.80;99.90;;;;;;4994022;28;20522;-73
2021/05/11 18:36:56;;;;;;;32.00;30.80;;;13.80;99.90;;;;;;4990513;28;20466;-73
2021/05/11 18:39:24;;;;;;;32.00;30.80;;;13.80;99.90;;;;;;4983059;28;20447;-73
2021/05/11 18:41:51;;;;;;;32.07;30.77;;;13.80;99.90;;;;;;4985071;28;20446;-72
2021/05/11 18:44:17;;;;;;;32.87;31.37;;;13.80;99.90;;;;;;4993995;28;20470;-72
2021/05/11 18:46:45;;;;;;;32.87;31.60;;;13.80;99.90;;;;;;4977338;28;20492;-72
2021/05/11 18:49:12;;;;;;;32.23;31.00;;;13.80;99.90;;;;;;4974032;28;20487;-73
2021/05/11 18:51:39;;;;;;;30.90;29.70;;;13.80;99.90;;;;;;4974183;28;20477;-72
2021/05/11 18:54:05;;;;;;;32.40;31.10;;;13.80;99.90;;;;;;4981007;28;20459;-73
2021/05/11 18:56:32;;;;;;;33.33;31.23;;;13.90;99.90;;;;;;4993989;28;20449;-72
2021/05/11 18:58:58;;;;;;;32.27;30.93;;;13.90;99.90;;;;;;4993233;28;20512;-72
2021/05/11 19:01:25;;;;;;;32.30;31.10;;;13.80;99.90;;;;;;4993513;28;20466;-71
2021/05/11 19:03:51;;;;;;;32.60;31.40;;;13.90;99.90;;;;;;4993189;28;20454;-72
2021/05/11 19:06:18;;;;;;;32.20;30.80;;;13.90;99.90;;;;;;4993516;28;20541;-72
2021/05/11 19:08:45;;;;;;;33.23;31.70;;;13.90;99.90;;;;;;4993270;28;20483;-73
2021/05/11 19:11:12;;;;;;;32.93;31.63;;;13.90;99.90;;;;;;4986629;28;20452;-73
2021/05/11 19:13:38;;;;;;;33.10;31.80;;;13.80;99.90;;;;;;4973711;28;20464;-73
2021/05/11 19:16:07;;;;;;;32.33;31.13;;;13.90;99.90;;;;;;4973817;28;20472;-72
2021/05/11 19:18:34;;;;;;;32.80;31.50;;;13.90;99.90;;;;;;4974039;28;20554;-73
2021/05/11 19:21:01;;;;;;;32.77;31.47;;;13.80;99.90;;;;;;4973827;28;20456;-73
2021/05/11 19:23:33;;;;;;;34.60;33.10;;;13.90;99.90;;;;;;4973078;28;20456;-73
2021/05/11 19:26:00;;;;;;;33.07;31.77;;;13.90;99.90;;;;;;4973090;28;20937;-73
2021/05/11 19:28:27;;;;;;;34.13;32.73;;;13.90;99.90;;;;;;4973709;28;20466;-72
2021/05/11 19:30:53;;;;;;;33.00;31.70;;;13.80;99.90;;;;;;4973392;28;20451;-72
2021/05/11 19:33:20;;;;;;;33.73;32.23;;;13.80;99.90;;;;;;4973710;28;20478;-73
2021/05/11 19:35:47;;;;;;;34.33;32.83;;;13.70;99.90;;;;;;4973555;28;20460;-73
2021/05/11 19:38:13;;;;;;;32.67;31.40;;;13.60;99.90;;;;;;4973275;28;20562;-73
2021/05/11 19:40:41;;;;;;;33.23;31.93;;;13.60;99.90;;;;;;4973237;28;20456;-72
2021/05/11 19:43:07;;;;;;;32.70;31.43;;;13.50;99.90;;;;;;4973099;28;20456;-72
2021/05/11 19:45:33;;;;;;;33.63;32.33;;;13.50;99.90;;;;;;4981856;28;20566;-73
2021/05/11 19:48:00;;;;;;;34.50;33.20;;;13.60;99.90;;;;;;4992249;28;20494;-73
2021/05/11 19:50:27;;;;;;;33.20;31.83;;;13.50;99.90;;;;;;4992654;28;20875;-73
2021/05/11 19:52:53;;;;;;;34.43;33.07;;;13.50;99.90;;;;;;4992348;28;20525;-72
2021/05/11 19:55:20;;;;;;;35.13;33.63;;;13.40;99.90;;;;;;4992850;28;20459;-73
2021/05/11 19:57:47;;;;;;;32.77;31.37;;;13.50;99.90;;;;;;4992571;28;20465;-72
2021/05/11 20:00:15;;;;;;;32.80;31.50;;;13.40;99.90;;;;;;4992586;28;20976;-72
2021/05/11 20:02:42;;;;;;;32.17;30.87;;;13.30;99.90;;;;;;4992088;28;20458;-72
2021/05/11 20:05:09;;;;;;;31.60;30.40;;;13.30;99.90;;;;;;4992530;28;20486;-72
2021/05/11 20:07:35;;;;;;;32.47;31.17;;;13.20;99.90;;;;;;4992600;28;20454;-72
2021/05/11 20:10:01;;;;;;;32.57;31.30;;;13.10;99.90;;;;;;4992315;28;20454;-72
2021/05/11 20:12:28;;;;;;;31.43;30.13;;;13.10;99.90;;;;;;4992378;28;20450;-72
2021/05/11 20:14:55;;;;;;;31.67;30.47;;;13.10;99.90;;;;;;4991992;28;20493;-72
2021/05/11 20:17:21;;;;;;;31.17;29.97;;;13.00;99.90;;;;;;4992337;28;20552;-72
2021/05/11 20:19:47;;;;;;;31.60;30.40;;;13.00;99.90;;;;;;4992211;28;20513;-72
2021/05/11 20:22:14;;;;;;;31.37;30.17;;;13.00;99.90;;;;;;4991954;28;20454;-73
2021/05/11 20:24:40;;;;;;;31.77;30.57;;;13.00;99.90;;;;;;4991702;28;21068;-72
2021/05/11 20:27:07;;;;;;;32.37;31.00;;;13.00;99.90;;;;;;4992130;28;20800;-73
2021/05/11 20:29:33;;;;;;;32.30;31.10;;;12.90;99.90;;;;;;4992110;28;20458;-73
2021/05/11 20:32:00;;;;;;;32.10;30.87;;;13.00;99.90;;;;;;4991636;28;20956;-73
2021/05/11 20:34:26;;;;;;;31.67;30.27;;;13.00;99.90;;;;;;4991799;28;20764;-73
2021/05/11 20:36:52;;;;;;;32.23;31.03;;;13.00;99.90;;;;;;4985143;28;20467;-71
2021/05/11 20:39:19;;;;;;;31.00;29.80;;;13.00;99.90;;;;;;4980376;28;20478;-72
2021/05/11 20:41:46;;;;;;;30.07;28.97;;;13.00;99.90;;;;;;4972292;28;20458;-71
2021/05/11 20:44:14;;;;;;;31.93;30.43;;;13.00;99.90;;;;;;4972462;28;20448;-69
2021/05/11 20:46:40;;;;;;;30.63;29.50;;;13.00;99.90;;;;;;4989782;28;20483;-69
2021/05/11 20:49:07;;;;;;;29.97;28.87;;;13.00;99.90;;;;;;4991442;28;20489;-68
2021/05/11 20:51:35;;;;;;;31.10;29.70;;;12.90;99.90;;;;;;4991692;28;20458;-69
2021/05/11 20:54:01;;;;;;;32.57;31.30;;;13.00;99.90;;;;;;4991855;28;20486;-68
2021/05/11 20:56:27;;;;;;;31.90;30.70;;;13.00;99.90;;;;;;4991673;28;20450;-69
2021/05/11 20:58:55;;;;;;;30.53;29.33;;;13.00;99.90;;;;;;4991796;28;20525;-68
2021/05/11 21:01:22;;;;;;;30.57;29.40;;;13.10;99.90;;;;;;4991471;28;20528;-69
2021/05/11 21:03:48;;;;;;;30.97;29.87;;;13.10;99.90;;;;;;4991623;28;20471;-69
2021/05/11 21:06:16;;;;;;;30.37;29.07;;;13.10;99.90;;;;;;4991504;28;20566;-69
2021/05/11 21:08:42;;;;;;;30.80;29.60;;;13.10;99.90;;;;;;4991348;28;20443;-69
2021/05/11 21:11:08;;;;;;;30.07;28.97;;;13.00;99.90;;;;;;4991493;28;20615;-69
2021/05/11 21:13:34;;;;;;;31.10;29.90;;;13.00;99.90;;;;;;4991477;28;20457;-70
2021/05/11 21:16:01;;;;;;;31.77;30.53;;;13.00;99.90;;;;;;4991331;28;20484;-69
2021/05/11 21:18:28;;;;;;;32.30;31.10;;;12.90;99.90;;;;;;4991413;28;20953;-69
2021/05/11 21:20:56;;;;;;;31.20;30.00;;;13.00;99.90;;;;;;4991413;28;21113;-69
2021/05/11 21:23:23;;;;;;;32.77;31.57;;;12.90;99.90;;;;;;4991355;28;20533;-69
2021/05/11 21:25:50;;;;;;;32.00;30.70;;;13.00;99.90;;;;;;4991637;28;20490;-69
2021/05/11 21:28:16;;;;;;;31.43;30.10;;;13.00;99.90;;;;;;4991362;28;20463;-69
2021/05/11 21:30:43;;;;;;;31.33;30.13;;;12.90;99.90;;;;;;4991477;28;20803;-69
2021/05/11 21:33:09;;;;;;;31.63;30.43;;;12.90;99.90;;;;;;4991152;28;20439;-70
2021/05/11 21:35:35;;;;;;;31.57;30.37;;;12.80;99.90;;;;;;4991276;28;20454;-69
2021/05/11 21:38:01;;;;;;;30.80;29.60;;;12.80;99.90;;;;;;4991381;28;20508;-69
2021/05/11 21:40:29;;;;;;;30.70;29.60;;;12.80;99.90;;;;;;4990999;28;20455;-69
2021/05/11 21:42:55;;;;;;;31.87;30.67;;;12.80;99.90;;;;;;4991235;28;20480;-69
2021/05/11 21:45:22;;;;;;;31.60;30.50;;;12.80;99.90;;;;;;4983970;28;20479;-68
2021/05/11 21:47:48;;;;;;;31.27;29.87;;;12.80;99.90;;;;;;4970949;28;20494;-69
2021/05/11 21:50:16;;;;;;;31.17;29.90;;;12.80;99.90;;;;;;4971580;28;20447;-69
2021/05/11 21:52:43;;;;;;;30.60;29.40;;;12.80;99.90;;;;;;4971715;28;20456;-69
2021/05/11 21:55:12;;;;;;;31.33;30.07;;;12.80;99.90;;;;;;4971751;28;20459;-69
2021/05/11 21:57:39;;;;;;;31.40;30.10;;;12.80;99.90;;;;;;4971415;28;20510;-68
2021/05/11 22:00:14;;;;;;;29.47;28.37;;;12.70;99.90;;;;;;4971889;28;20459;-69
2021/05/11 22:02:40;;;;;;;29.70;28.50;;;12.70;99.90;;;;;;4971425;28;20911;-69
2021/05/11 22:05:07;;;;;;;31.23;29.93;;;12.80;99.90;;;;;;4971468;28;21029;-69
2021/05/11 22:07:34;;;;;;;29.13;27.93;;;12.70;99.90;;;;;;4972028;28;20453;-69
2021/05/11 22:10:00;;;;;;;31.97;30.67;;;12.70;99.90;;;;;;4971661;28;20502;-69
2021/05/11 22:12:26;;;;;;;32.47;30.77;;;12.80;99.90;;;;;;4971212;28;20554;-69
2021/05/11 22:14:53;;;;;;;31.63;30.37;;;12.80;99.90;;;;;;4971613;28;20561;-69
2021/05/11 22:17:20;;;;;;;32.47;31.07;;;12.70;99.90;;;;;;4973460;28;20455;-69
2021/05/11 22:19:46;;;;;;;31.87;30.57;;;12.80;99.90;;;;;;4973675;28;20466;-69
2021/05/11 22:22:12;;;;;;;32.53;31.20;;;12.80;99.90;;;;;;4972810;28;20452;-70
2021/05/11 22:24:38;;;;;;;31.50;30.10;;;12.80;99.90;;;;;;4971358;28;20799;-70
2021/05/11 22:27:05;;;;;;;32.20;30.73;;;12.70;99.90;;;;;;4971502;28;20495;-69
2021/05/11 22:29:31;;;;;;;31.77;30.47;;;12.80;99.90;;;;;;4971338;28;20452;-69
2021/05/11 22:31:58;;;;;;;31.27;29.87;;;12.80;99.90;;;;;;4971365;28;20444;-70
2021/05/11 22:34:25;;;;;;;31.30;29.83;;;12.80;99.90;;;;;;4971183;28;20463;-69
2021/05/11 22:36:51;;;;;;;32.33;30.93;;;12.70;99.90;;;;;;4971108;28;20452;-70
2021/05/11 22:39:18;;;;;;;32.57;31.07;;;12.70;99.90;;;;;;4971037;28;21034;-69
2021/05/11 22:41:45;;;;;;;32.23;30.73;;;12.70;99.90;;;;;;4971733;28;20625;-69
2021/05/11 22:44:12;;;;;;;33.50;32.00;;;12.70;99.90;;;;;;4971318;28;20451;-70
2021/05/11 22:46:38;;;;;;;32.43;31.13;;;12.70;99.90;;;;;;4987958;28;20490;-70
2021/05/11 22:49:05;;;;;;;32.83;31.33;;;12.80;99.90;;;;;;4990630;28;20505;-70
2021/05/11 22:51:31;;;;;;;33.30;31.63;;;12.80;99.90;;;;;;4990741;28;20481;-70
2021/05/11 22:53:57;;;;;;;33.83;32.23;;;12.80;99.90;;;;;;4990613;28;20788;-70
2021/05/11 22:56:23;;;;;;;33.40;31.90;;;12.80;99.90;;;;;;4990166;28;20470;-70
2021/05/11 22:58:50;;;;;;;33.83;32.23;;;12.80;99.90;;;;;;4991769;28;20467;-70
2021/05/11 23:01:16;;;;;;;32.00;30.70;;;12.80;99.90;;;;;;4994154;28;20501;-70
2021/05/11 23:03:42;;;;;;;32.20;30.70;;;12.90;99.90;;;;;;4993655;28;20451;-70
2021/05/11 23:06:09;;;;;;;33.73;31.83;;;12.80;99.90;;;;;;4993938;28;20494;-70
2021/05/11 23:08:35;;;;;;;34.37;32.77;;;12.80;99.90;;;;;;4993688;28;20459;-70
2021/05/11 23:11:02;;;;;;;33.47;31.93;;;12.90;99.90;;;;;;4993741;28;20454;-70
2021/05/11 23:13:28;;;;;;;32.33;30.77;;;12.80;99.90;;;;;;4993242;28;20462;-71
2021/05/11 23:15:57;;;;;;;33.80;32.17;;;12.80;99.90;;;;;;4993603;28;20443;-71
2021/05/11 23:18:26;;;;;;;33.17;31.57;;;12.80;99.90;;;;;;4993633;28;20830;-71
2021/05/11 23:20:52;;;;;;;34.83;33.03;;;12.80;99.90;;;;;;4993507;28;20791;-71
2021/05/11 23:23:20;;;;;;;34.60;33.00;;;12.80;99.90;;;;;;4993589;28;20457;-71
2021/05/11 23:25:47;;;;;;;33.90;32.20;;;12.80;99.90;;;;;;4993824;28;20519;-71
2021/05/11 23:28:17;;;;;;;35.30;33.60;;;12.80;99.90;;;;;;4993244;28;20455;-71
2021/05/11 23:30:44;;;;;;;34.80;33.20;;;12.90;99.90;;;;;;4993274;28;20932;-71
2021/05/11 23:33:10;;;;;;;35.37;33.57;;;12.90;99.90;;;;;;4993009;28;20446;-71
2021/05/11 23:35:36;;;;;;;35.03;33.20;;;12.90;99.90;;;;;;4993452;28;20501;-70
2021/05/11 23:38:03;;;;;;;35.77;33.73;;;12.90;99.90;;;;;;4993360;28;20473;-70
2021/05/11 23:40:30;;;;;;;34.90;33.30;;;12.90;99.90;;;;;;4993321;28;20614;-71
2021/05/11 23:42:56;;;;;;;33.70;32.10;;;12.80;99.90;;;;;;4993312;28;20455;-71
2021/05/11 23:45:25;;;;;;;33.20;31.70;;;12.80;99.90;;;;;;4985319;28;20538;-71
2021/05/11 23:47:52;;;;;;;33.73;32.23;;;12.80;99.90;;;;;;4973576;28;20550;-71
2021/05/11 23:50:21;;;;;;;33.43;31.90;;;12.90;99.90;;;;;;4973640;28;20456;-71
2021/05/11 23:52:48;;;;;;;34.67;33.00;;;12.80;99.90;;;;;;4973629;28;20463;-71
2021/05/11 23:55:14;;;;;;;33.80;32.20;;;12.80;99.90;;;;;;4973106;28;20928;-71
2021/05/11 23:57:41;;;;;;;34.43;32.80;;;12.70;99.90;;;;;;4973251;28;20463;-71
